Airfield :
LOGIN :

Register | Disclaimer

   EN    FR    IT 

 










Legend :    VFR   Marginal VFR   IFR   Intensive IFR   Very Intensive IFR
Visi :
Ceiling :
>= 8 km
>= 3000ft
5 to 8 km
1000 to 3000 ft
1500m to 5 km
500 to 1000 ft
800 to 1500m
200 to 500 ft
< 800m
< 200 ft
Symbols :   Thunderstorms  Fog  Heavy snow  Heavy precipitations  Wind > 20 kt
SIGMETs :     Misc.  Thunderstorms  Icing  Turbulence  Mountain Waves  Volcanic Ashes







- Airport Elevation : 83 ft
- IATA code : LHR
- Download approach charts


EGLL - London Heathrow

CURRENT METAR :
  • 191150Z AUTO 15007KT 9000 OVC011 16/15 Q1003 NOSIG

EXPIRED METARs :
  • 191120Z AUTO 13008KT 7000 BKN012 17/15 Q1003 NOSIG
  • 191050Z AUTO 11007KT 3700 -RA FEW016 SCT040 16/15 Q1004 RERA
  • 191020Z AUTO 10008KT 2800 HZ FEW005 SCT020 16/15 Q1004
  • 190950Z AUTO 09004KT 3700 HZ SCT006 16/15 Q1004 BECMG BKN006
  • 190920Z AUTO 09005KT 3500 HZ SCT004 BKN009 16/15 Q1005

TAF TAF EGLL
Valid from the 19 at 12:00 until the 20 at 18:00 UTC


191108Z 1912/2018 17010KT 6000 SCT010 BKN040
TEMPO 1912/1916 4000 SHRA BKN006
TEMPO 1919/1922 RA BKN012
TEMPO 1922/2012 20015G25KT SHRA BKN008
No reported NOTAMs for that airfield.



MET'MAP, your aeronautical weather chart ! - Copyright ORBIFLY December 2007 - Disclaimer

ORBIFLY MET'MAP TEAM :

Programming & Development : Alexandra Zaïnal
Concept & Development : Baudouin d'Aumeries
Co-Development & Prog : Marc-Olivier Méhu
Technical & hardware support : Manuel Goepfert

Contact : metmap@orbifly.com




SOURCES & CREDITS :

   NOAA